createdAt,value
2017-01-14T00:00:06.171Z,0
2017-01-14T00:01:06.074Z,0
2017-01-14T00:02:06.078Z,0
2017-01-14T00:03:06.241Z,0
2017-01-14T00:04:06.303Z,0
2017-01-14T00:05:06.081Z,0
2017-01-14T00:06:06.098Z,0
2017-01-14T00:07:06.357Z,0
2017-01-14T00:08:06.049Z,0
2017-01-14T00:09:06.166Z,0
2017-01-14T00:10:06.052Z,0
2017-01-14T00:11:06.150Z,0
2017-01-14T00:12:06.108Z,0
2017-01-14T00:13:06.059Z,0
2017-01-14T00:14:06.422Z,4
2017-01-14T00:15:06.342Z,4
2017-01-14T00:16:06.211Z,4
2017-01-14T00:17:06.168Z,0
2017-01-14T00:18:06.127Z,0
2017-01-14T00:19:06.084Z,0
2017-01-14T00:20:06.117Z,0
2017-01-14T00:21:06.390Z,0
2017-01-14T00:22:06.320Z,0
2017-01-14T00:23:07.010Z,0
2017-01-14T00:24:06.179Z,0
2017-01-14T00:25:06.049Z,0
2017-01-14T00:26:06.088Z,0
2017-01-14T00:27:06.136Z,0
2017-01-14T00:28:06.057Z,0
2017-01-14T00:29:06.111Z,0
2017-01-14T00:30:06.265Z,0
2017-01-14T00:31:06.142Z,0
2017-01-14T00:32:06.150Z,0
2017-01-14T00:33:06.337Z,0
2017-01-14T00:34:06.312Z,0
2017-01-14T00:35:06.152Z,0
2017-01-14T00:36:06.071Z,0
2017-01-14T00:37:06.213Z,0
2017-01-14T00:38:06.225Z,0
2017-01-14T00:39:06.047Z,0
2017-01-14T00:40:06.290Z,0
2017-01-14T00:41:06.103Z,0
2017-01-14T00:42:06.082Z,0
2017-01-14T00:43:06.070Z,0
2017-01-14T00:44:06.129Z,0
2017-01-14T00:45:06.178Z,0
2017-01-14T00:46:06.219Z,0
2017-01-14T00:47:06.079Z,0
2017-01-14T00:48:06.227Z,0
2017-01-14T00:49:06.067Z,0
2017-01-14T00:50:06.179Z,0
2017-01-14T00:51:06.070Z,0
2017-01-14T00:52:06.217Z,0
2017-01-14T00:53:06.077Z,0
2017-01-14T00:54:06.255Z,0
2017-01-14T00:55:06.077Z,0
2017-01-14T00:56:06.112Z,0
2017-01-14T00:57:06.123Z,0
2017-01-14T00:58:06.185Z,0
2017-01-14T00:59:06.168Z,0
2017-01-14T01:00:06.089Z,0
2017-01-14T01:01:06.089Z,0
2017-01-14T01:02:06.069Z,0
2017-01-14T01:03:06.528Z,0
2017-01-14T01:04:06.215Z,0
2017-01-14T01:05:06.308Z,0
2017-01-14T01:06:06.112Z,0
2017-01-14T01:07:06.294Z,0
2017-01-14T01:08:06.120Z,0
2017-01-14T01:09:06.114Z,0
2017-01-14T01:10:06.117Z,0
2017-01-14T01:11:06.191Z,0
2017-01-14T01:12:06.176Z,0
2017-01-14T01:13:06.085Z,0
2017-01-14T01:14:06.181Z,0
2017-01-14T01:15:06.099Z,0
2017-01-14T01:16:06.227Z,0
2017-01-14T01:17:06.181Z,0
2017-01-14T01:18:06.179Z,0
2017-01-14T01:19:06.095Z,0
2017-01-14T01:20:06.121Z,0
2017-01-14T01:21:06.356Z,0
2017-01-14T01:22:06.134Z,0
2017-01-14T01:23:06.103Z,0
2017-01-14T01:24:06.101Z,0
2017-01-14T01:25:06.123Z,0
2017-01-14T01:26:06.126Z,0
2017-01-14T01:27:06.536Z,0
2017-01-14T01:28:06.112Z,0
2017-01-14T01:29:06.114Z,0
2017-01-14T01:30:06.822Z,0
2017-01-14T01:31:06.126Z,0
2017-01-14T01:32:06.123Z,0
2017-01-14T01:33:06.099Z,0
2017-01-14T01:34:06.088Z,0
2017-01-14T01:35:06.099Z,0
2017-01-14T01:36:06.099Z,0
2017-01-14T01:37:06.193Z,0
2017-01-14T01:38:06.110Z,0
2017-01-14T01:39:06.117Z,0
2017-01-14T01:40:06.233Z,0
2017-01-14T01:41:06.197Z,0
2017-01-14T01:42:06.127Z,0
2017-01-14T01:43:06.219Z,0
2017-01-14T01:44:06.215Z,0
2017-01-14T01:45:06.113Z,0
2017-01-14T01:46:06.239Z,0
2017-01-14T01:47:06.134Z,0
2017-01-14T01:48:06.140Z,0
2017-01-14T01:49:06.147Z,0
2017-01-14T01:50:06.098Z,0
2017-01-14T01:51:06.161Z,0
2017-01-14T01:52:06.161Z,0
2017-01-14T01:53:06.270Z,0
2017-01-14T01:54:06.219Z,0
2017-01-14T01:55:06.163Z,0
2017-01-14T01:56:06.194Z,0
2017-01-14T01:57:06.290Z,0
2017-01-14T01:58:06.103Z,0
2017-01-14T01:59:06.102Z,0
2017-01-14T02:00:06.282Z,0
2017-01-14T02:01:06.239Z,0
2017-01-14T02:02:06.174Z,0
2017-01-14T02:03:06.143Z,0
2017-01-14T02:04:06.233Z,0
2017-01-14T02:05:06.107Z,0
2017-01-14T02:06:06.318Z,0
2017-01-14T02:07:06.171Z,0
2017-01-14T02:08:06.156Z,0
2017-01-14T02:09:06.148Z,0
2017-01-14T02:10:06.116Z,0
2017-01-14T02:11:06.244Z,0
2017-01-14T02:12:06.121Z,0
2017-01-14T02:13:06.193Z,0
2017-01-14T02:14:06.263Z,0
2017-01-14T02:15:06.274Z,0
2017-01-14T02:16:06.254Z,0
2017-01-14T02:17:06.130Z,0
2017-01-14T02:18:06.128Z,0
2017-01-14T02:19:06.106Z,0
2017-01-14T02:20:06.127Z,0
2017-01-14T02:21:06.221Z,0
2017-01-14T02:22:06.240Z,0
2017-01-14T02:23:06.132Z,0
2017-01-14T02:24:06.274Z,0
2017-01-14T02:25:06.438Z,0
2017-01-14T02:26:06.215Z,0
2017-01-14T02:27:06.135Z,0
2017-01-14T02:28:06.234Z,0
2017-01-14T02:29:06.120Z,0
2017-01-14T02:30:06.145Z,0
2017-01-14T02:31:06.290Z,0
2017-01-14T02:32:06.149Z,0
2017-01-14T02:33:06.115Z,0
2017-01-14T02:34:06.286Z,0
2017-01-14T02:35:06.471Z,0
2017-01-14T02:36:06.162Z,0
2017-01-14T02:37:06.164Z,0
2017-01-14T02:38:06.306Z,0
2017-01-14T02:39:06.135Z,0
2017-01-14T02:40:06.152Z,0
2017-01-14T02:41:06.139Z,0
2017-01-14T02:42:06.249Z,0
2017-01-14T02:43:06.244Z,0
2017-01-14T02:44:06.182Z,0
2017-01-14T02:45:06.357Z,0
2017-01-14T02:46:06.329Z,0
2017-01-14T02:47:06.187Z,0
2017-01-14T02:48:06.238Z,0
2017-01-14T02:49:06.299Z,0
2017-01-14T02:50:08.832Z,0
2017-01-14T02:51:11.537Z,0
2017-01-14T02:52:06.423Z,0
2017-01-14T02:53:11.212Z,0
2017-01-14T02:54:06.235Z,0
2017-01-14T02:55:06.252Z,0
2017-01-14T02:56:06.303Z,0
2017-01-14T02:57:06.155Z,0
2017-01-14T02:58:06.158Z,0
2017-01-14T02:59:06.145Z,0
2017-01-14T03:00:06.198Z,0
2017-01-14T03:01:06.730Z,0
2017-01-14T03:02:06.283Z,0
2017-01-14T03:03:06.262Z,0
2017-01-14T03:04:06.192Z,0
2017-01-14T03:05:06.161Z,0
2017-01-14T03:06:06.283Z,0
2017-01-14T03:07:06.217Z,0
2017-01-14T03:08:06.384Z,0
2017-01-14T03:09:06.182Z,0
2017-01-14T03:10:06.416Z,0
2017-01-14T03:11:06.214Z,0
2017-01-14T03:12:06.269Z,0
2017-01-14T03:13:06.182Z,0
2017-01-14T03:14:06.207Z,0
2017-01-14T03:15:06.264Z,0
2017-01-14T03:16:06.270Z,0
2017-01-14T03:17:06.178Z,0
2017-01-14T03:18:06.259Z,0
2017-01-14T03:19:06.328Z,0
2017-01-14T03:20:06.203Z,0
2017-01-14T03:21:06.194Z,0
2017-01-14T03:22:06.177Z,0
2017-01-14T03:23:06.289Z,0
2017-01-14T03:24:06.491Z,0
2017-01-14T03:25:06.195Z,0
2017-01-14T03:26:06.378Z,0
2017-01-14T03:27:06.184Z,0
2017-01-14T03:28:06.183Z,0
2017-01-14T03:29:06.161Z,0
2017-01-14T03:30:06.286Z,0
2017-01-14T03:31:06.168Z,0
2017-01-14T03:32:06.173Z,0
2017-01-14T03:33:06.204Z,0
2017-01-14T03:34:06.237Z,0
2017-01-14T03:35:06.350Z,0
2017-01-14T03:36:06.254Z,0
2017-01-14T03:37:06.190Z,0
2017-01-14T03:38:06.214Z,0
2017-01-14T03:39:06.223Z,0
2017-01-14T03:40:06.212Z,0
2017-01-14T03:41:06.183Z,0
2017-01-14T03:42:06.207Z,0
2017-01-14T03:43:06.180Z,0
2017-01-14T03:44:06.177Z,0
2017-01-14T03:45:06.209Z,0
2017-01-14T03:46:06.181Z,0
2017-01-14T03:47:06.242Z,0
2017-01-14T03:48:06.209Z,0
2017-01-14T03:49:06.193Z,0
2017-01-14T03:50:06.183Z,0
2017-01-14T03:51:06.223Z,0
2017-01-14T03:52:06.189Z,0
2017-01-14T03:53:06.194Z,0
2017-01-14T03:54:06.188Z,0
2017-01-14T03:55:06.190Z,0
2017-01-14T03:56:06.212Z,0
2017-01-14T03:57:06.193Z,0
2017-01-14T03:58:06.217Z,0
2017-01-14T03:59:06.194Z,0
2017-01-14T04:00:06.199Z,0
2017-01-14T04:01:06.193Z,0
2017-01-14T04:02:06.209Z,0
2017-01-14T04:03:06.185Z,0
2017-01-14T04:04:06.177Z,0
2017-01-14T04:05:06.232Z,0
2017-01-14T04:06:06.196Z,0
2017-01-14T04:07:06.214Z,0
2017-01-14T04:08:06.228Z,0
2017-01-14T04:09:06.203Z,0
2017-01-14T04:10:06.221Z,0
2017-01-14T04:11:06.196Z,0
2017-01-14T04:12:06.206Z,0
2017-01-14T04:13:06.209Z,0
2017-01-14T04:14:06.222Z,0
2017-01-14T04:15:06.208Z,0
2017-01-14T04:16:06.196Z,0
2017-01-14T04:17:06.212Z,0
2017-01-14T04:18:06.226Z,0
2017-01-14T04:19:06.220Z,0
2017-01-14T04:20:06.209Z,0
2017-01-14T04:21:06.259Z,0
2017-01-14T04:22:06.212Z,0
2017-01-14T04:23:06.219Z,0
2017-01-14T04:24:06.232Z,0
2017-01-14T04:25:06.210Z,0
2017-01-14T04:26:06.232Z,0
2017-01-14T04:27:06.208Z,0
2017-01-14T04:28:06.259Z,0
2017-01-14T04:29:06.217Z,0
2017-01-14T04:30:06.244Z,0
2017-01-14T04:31:06.234Z,0
2017-01-14T04:32:06.224Z,0
2017-01-14T04:33:06.218Z,0
2017-01-14T04:34:06.223Z,0
2017-01-14T04:35:06.212Z,0
2017-01-14T04:36:06.223Z,0
2017-01-14T04:37:06.219Z,0
2017-01-14T04:38:06.236Z,0
2017-01-14T04:39:06.223Z,0
2017-01-14T04:40:06.207Z,0
2017-01-14T04:41:06.208Z,0
2017-01-14T04:42:06.227Z,0
2017-01-14T04:43:06.222Z,0
2017-01-14T04:44:06.232Z,0
2017-01-14T04:45:06.240Z,0
2017-01-14T04:46:06.211Z,0
2017-01-14T04:47:06.222Z,0
2017-01-14T04:48:06.242Z,0
2017-01-14T04:49:06.216Z,0
2017-01-14T04:50:06.242Z,0
2017-01-14T04:51:06.241Z,0
2017-01-14T04:52:06.256Z,0
2017-01-14T04:53:06.235Z,0
2017-01-14T04:54:06.229Z,0
2017-01-14T04:55:06.220Z,0
2017-01-14T04:56:06.229Z,0
2017-01-14T04:57:06.222Z,0
2017-01-14T04:58:06.256Z,0
2017-01-14T04:59:06.248Z,0
2017-01-14T05:00:06.221Z,0
2017-01-14T05:01:06.238Z,0
2017-01-14T05:02:06.240Z,0
2017-01-14T05:03:06.254Z,0
2017-01-14T05:04:06.269Z,0
2017-01-14T05:05:06.243Z,0
2017-01-14T05:06:06.222Z,0
2017-01-14T05:07:06.239Z,0
2017-01-14T05:08:06.261Z,0
2017-01-14T05:09:06.254Z,0
2017-01-14T05:10:06.248Z,0
2017-01-14T05:11:06.262Z,0
2017-01-14T05:12:06.259Z,0
2017-01-14T05:13:06.254Z,0
2017-01-14T05:14:06.249Z,0
2017-01-14T05:15:06.278Z,0
2017-01-14T05:16:06.256Z,0
2017-01-14T05:17:06.248Z,0
2017-01-14T05:18:06.235Z,0
2017-01-14T05:19:06.263Z,0
2017-01-14T05:20:06.296Z,0
2017-01-14T05:21:06.252Z,0
2017-01-14T05:22:06.258Z,0
2017-01-14T05:23:06.261Z,0
2017-01-14T05:24:06.278Z,0
2017-01-14T05:25:06.259Z,0
2017-01-14T05:26:06.248Z,0
2017-01-14T05:27:06.248Z,0
2017-01-14T05:28:06.261Z,0
2017-01-14T05:29:06.260Z,0
2017-01-14T05:30:06.277Z,0
2017-01-14T05:31:06.263Z,0
2017-01-14T05:32:06.238Z,0
2017-01-14T05:33:06.287Z,0
2017-01-14T05:34:06.261Z,0
2017-01-14T05:35:06.252Z,0
2017-01-14T05:36:06.249Z,0
2017-01-14T05:37:06.284Z,0
2017-01-14T05:38:06.269Z,0
2017-01-14T05:39:06.272Z,0
2017-01-14T05:40:06.253Z,0
2017-01-14T05:41:06.261Z,0
2017-01-14T05:42:06.261Z,0
2017-01-14T05:43:06.251Z,0
2017-01-14T05:44:06.301Z,0
2017-01-14T05:45:06.288Z,0
2017-01-14T05:46:06.260Z,0
2017-01-14T05:47:06.277Z,0
2017-01-14T05:48:06.278Z,0
2017-01-14T05:49:06.265Z,0
2017-01-14T05:50:06.298Z,0
2017-01-14T05:51:06.263Z,0
2017-01-14T05:52:06.284Z,0
2017-01-14T05:53:06.259Z,0
2017-01-14T05:54:06.284Z,0
2017-01-14T05:55:06.263Z,0
2017-01-14T05:56:06.272Z,0
2017-01-14T05:57:06.280Z,0
2017-01-14T05:58:06.283Z,0
2017-01-14T05:59:06.272Z,0
2017-01-14T06:00:06.294Z,0
2017-01-14T06:01:06.277Z,0
2017-01-14T06:02:06.261Z,0
2017-01-14T06:03:06.268Z,0
2017-01-14T06:04:06.283Z,0
2017-01-14T06:05:06.269Z,0
2017-01-14T06:06:06.284Z,0
2017-01-14T06:07:06.284Z,0
2017-01-14T06:08:06.287Z,0
2017-01-14T06:09:06.362Z,0
2017-01-14T06:10:06.280Z,0
2017-01-14T06:11:06.315Z,0
2017-01-14T06:12:06.300Z,0
2017-01-14T06:13:06.270Z,0
2017-01-14T06:14:06.313Z,0
2017-01-14T06:15:06.301Z,0
2017-01-14T06:16:06.275Z,0
2017-01-14T06:17:06.307Z,0
2017-01-14T06:18:06.280Z,0
2017-01-14T06:19:06.369Z,0
2017-01-14T06:20:06.335Z,0
2017-01-14T06:21:06.290Z,0
2017-01-14T06:22:06.308Z,0
2017-01-14T06:23:06.294Z,0
2017-01-14T06:24:06.299Z,0
2017-01-14T06:25:06.271Z,0
2017-01-14T06:26:06.277Z,0
2017-01-14T06:27:06.283Z,0
2017-01-14T06:28:06.302Z,0
2017-01-14T06:29:06.298Z,0
2017-01-14T06:30:06.294Z,0
2017-01-14T06:31:06.315Z,0
2017-01-14T06:32:06.271Z,0
2017-01-14T06:33:06.311Z,0
2017-01-14T06:34:06.302Z,0
2017-01-14T06:35:06.302Z,0
2017-01-14T06:36:06.301Z,0
2017-01-14T06:37:06.288Z,0
2017-01-14T06:38:06.310Z,0
2017-01-14T06:39:06.320Z,0
2017-01-14T06:40:06.298Z,0
2017-01-14T06:41:06.321Z,0
2017-01-14T06:42:06.310Z,0
2017-01-14T06:43:06.314Z,0
2017-01-14T06:44:06.296Z,0
2017-01-14T06:45:06.313Z,0
2017-01-14T06:46:06.302Z,0
2017-01-14T06:47:06.283Z,0
2017-01-14T06:48:06.332Z,0
2017-01-14T06:49:06.316Z,0
2017-01-14T06:50:06.319Z,0
2017-01-14T06:51:06.311Z,4
2017-01-14T06:52:06.376Z,4
2017-01-14T06:53:06.310Z,4
2017-01-14T06:54:06.333Z,4
2017-01-14T06:55:06.325Z,4
2017-01-14T06:56:06.300Z,0
2017-01-14T06:57:06.321Z,4
2017-01-14T06:58:06.315Z,4
2017-01-14T06:59:06.309Z,4
2017-01-14T07:00:06.332Z,4
2017-01-14T07:01:06.305Z,8
2017-01-14T07:02:06.298Z,4
2017-01-14T07:03:06.323Z,8
2017-01-14T07:04:06.319Z,8
2017-01-14T07:05:06.321Z,8
2017-01-14T07:06:06.311Z,12
2017-01-14T07:07:06.384Z,12
2017-01-14T07:08:06.323Z,16
2017-01-14T07:09:06.329Z,20
2017-01-14T07:10:06.332Z,24
2017-01-14T07:11:06.317Z,28
2017-01-14T07:12:06.386Z,32
2017-01-14T07:13:06.334Z,36
2017-01-14T07:14:06.328Z,40
2017-01-14T07:15:06.331Z,48
2017-01-14T07:16:06.313Z,52
2017-01-14T07:17:06.332Z,60
2017-01-14T07:18:06.317Z,68
2017-01-14T07:19:06.350Z,72
2017-01-14T07:20:06.323Z,84
2017-01-14T07:21:06.338Z,92
2017-01-14T07:22:06.362Z,100
2017-01-14T07:23:06.330Z,112
2017-01-14T07:24:06.343Z,124
2017-01-14T07:25:06.326Z,140
2017-01-14T07:26:06.345Z,156
2017-01-14T07:27:06.322Z,168
2017-01-14T07:28:06.361Z,188
2017-01-14T07:29:06.334Z,200
2017-01-14T07:30:06.340Z,216
2017-01-14T07:31:06.338Z,232
2017-01-14T07:32:06.348Z,244
2017-01-14T07:33:06.337Z,268
2017-01-14T07:34:06.356Z,288
2017-01-14T07:35:06.377Z,308
2017-01-14T07:36:06.331Z,344
2017-01-14T07:37:06.345Z,372
2017-01-14T07:38:06.404Z,396
2017-01-14T07:39:06.376Z,420
2017-01-14T07:40:06.395Z,440
2017-01-14T07:41:06.342Z,468
2017-01-14T07:42:06.352Z,492
2017-01-14T07:43:06.357Z,512
2017-01-14T07:44:06.406Z,544
2017-01-14T07:45:06.357Z,560
2017-01-14T07:46:06.355Z,592
2017-01-14T07:47:06.349Z,596
2017-01-14T07:48:06.339Z,616
2017-01-14T07:49:06.381Z,668
2017-01-14T07:50:06.358Z,712
2017-01-14T07:51:06.357Z,748
2017-01-14T07:52:06.341Z,816
2017-01-14T07:53:06.418Z,876
2017-01-14T07:54:06.401Z,864
2017-01-14T07:55:06.370Z,940
2017-01-14T07:56:06.383Z,1112
2017-01-14T07:57:06.340Z,1268
2017-01-14T07:58:06.362Z,1192
2017-01-14T07:59:06.369Z,1240
2017-01-14T08:00:06.365Z,1028
2017-01-14T08:01:06.351Z,948
2017-01-14T08:02:06.365Z,964
2017-01-14T08:03:06.346Z,992
2017-01-14T08:04:06.366Z,1024
2017-01-14T08:05:06.354Z,1056
2017-01-14T08:06:06.380Z,1084
2017-01-14T08:07:06.374Z,1116
2017-01-14T08:08:06.346Z,1152
2017-01-14T08:09:06.378Z,1180
2017-01-14T08:10:06.360Z,1216
2017-01-14T08:11:06.376Z,1248
2017-01-14T08:12:06.364Z,1280
2017-01-14T08:13:06.384Z,1304
2017-01-14T08:14:06.364Z,1344
2017-01-14T08:15:06.375Z,1388
2017-01-14T08:16:06.397Z,1448
2017-01-14T08:17:06.382Z,1436
2017-01-14T08:18:06.361Z,1460
2017-01-14T08:19:06.378Z,1496
2017-01-14T08:20:06.392Z,1488
2017-01-14T08:21:06.388Z,1512
2017-01-14T08:22:06.356Z,1548
2017-01-14T08:23:06.370Z,1588
2017-01-14T08:24:06.357Z,1632
2017-01-14T08:25:06.377Z,1660
2017-01-14T08:26:06.392Z,1684
2017-01-14T08:27:06.429Z,1708
2017-01-14T08:28:06.413Z,1720
2017-01-14T08:29:06.388Z,1720
2017-01-14T08:30:06.377Z,1712
2017-01-14T08:31:06.368Z,1712
2017-01-14T08:32:06.427Z,1724
2017-01-14T08:33:06.381Z,1728
2017-01-14T08:34:06.382Z,1720
2017-01-14T08:35:06.516Z,1744
2017-01-14T08:36:07.189Z,1772
2017-01-14T08:37:06.369Z,1848
2017-01-14T08:38:06.393Z,1944
2017-01-14T08:39:06.383Z,2048
2017-01-14T08:40:06.389Z,2140
2017-01-14T08:41:06.381Z,2224
2017-01-14T08:42:06.388Z,2192
2017-01-14T08:43:06.375Z,2128
2017-01-14T08:44:06.446Z,2152
2017-01-14T08:45:06.389Z,2232
2017-01-14T08:46:06.404Z,2336
2017-01-14T08:47:06.391Z,2464
2017-01-14T08:48:06.399Z,2604
2017-01-14T08:49:06.461Z,2732
2017-01-14T08:50:06.422Z,2864
2017-01-14T08:51:06.405Z,3024
2017-01-14T08:52:06.393Z,3208
2017-01-14T08:53:06.432Z,3412
2017-01-14T08:54:06.500Z,3604
2017-01-14T08:55:06.432Z,3804
2017-01-14T08:56:06.393Z,4024
2017-01-14T08:57:06.802Z,4276
2017-01-14T08:58:06.408Z,4552
2017-01-14T08:59:06.428Z,4828
2017-01-14T09:00:06.421Z,5112
2017-01-14T09:01:06.472Z,5356
2017-01-14T09:02:06.382Z,5496
2017-01-14T09:03:06.429Z,5540
2017-01-14T09:04:06.435Z,5460
2017-01-14T09:05:06.587Z,5296
2017-01-14T09:06:06.430Z,5088
2017-01-14T09:07:06.413Z,4904
2017-01-14T09:08:06.904Z,4792
2017-01-14T09:09:06.458Z,4684
2017-01-14T09:10:06.428Z,4624
2017-01-14T09:11:07.960Z,4604
2017-01-14T09:12:06.431Z,4544
2017-01-14T09:13:06.404Z,4488
2017-01-14T09:14:07.072Z,4448
2017-01-14T09:15:06.418Z,4404
2017-01-14T09:16:06.431Z,4344
2017-01-14T09:17:06.401Z,4296
2017-01-14T09:18:06.430Z,4252
2017-01-14T09:19:06.683Z,4228
2017-01-14T09:20:06.425Z,4240
2017-01-14T09:21:08.285Z,4256
2017-01-14T09:22:09.310Z,4300
2017-01-14T09:23:10.358Z,4372
2017-01-14T09:24:09.382Z,4404
2017-01-14T09:25:09.841Z,4408
2017-01-14T09:26:09.830Z,4408
2017-01-14T09:27:09.567Z,4452
2017-01-14T09:28:09.428Z,4448
2017-01-14T09:29:14.107Z,4440
2017-01-14T09:30:06.425Z,4416
2017-01-14T09:31:14.929Z,4384
2017-01-14T09:32:09.684Z,4348
2017-01-14T09:33:06.438Z,4284
2017-01-14T09:34:06.544Z,4212
2017-01-14T09:35:06.445Z,4128
2017-01-14T09:36:06.561Z,4048
2017-01-14T09:37:06.503Z,3968
2017-01-14T09:38:06.436Z,3912
2017-01-14T09:39:06.445Z,3868
2017-01-14T09:40:06.438Z,3844
2017-01-14T09:41:06.457Z,3840
2017-01-14T09:42:06.447Z,3868
2017-01-14T09:43:06.466Z,3924
2017-01-14T09:44:06.452Z,4004
2017-01-14T09:45:06.430Z,4088
2017-01-14T09:46:06.481Z,4140
2017-01-14T09:47:06.412Z,4276
2017-01-14T09:48:06.531Z,4276
2017-01-14T09:49:06.439Z,4244
2017-01-14T09:50:06.532Z,4108
2017-01-14T09:51:06.565Z,4036
2017-01-14T09:52:06.745Z,4048
2017-01-14T09:53:06.508Z,4188
2017-01-14T09:54:06.575Z,4012
2017-01-14T09:55:06.595Z,4028
2017-01-14T09:56:06.762Z,3900
2017-01-14T09:57:06.570Z,4036
2017-01-14T09:58:07.209Z,3824
2017-01-14T09:59:06.434Z,3712
2017-01-14T10:00:11.779Z,3504
2017-01-14T10:01:06.504Z,3324
2017-01-14T10:02:16.288Z,3176
2017-01-14T10:03:16.268Z,3232
2017-01-14T10:04:16.175Z,3004
2017-01-14T10:05:16.952Z,2864
2017-01-14T10:06:15.757Z,2764
2017-01-14T10:07:14.858Z,2712
2017-01-14T10:08:16.891Z,2672
2017-01-14T10:09:15.675Z,2648
2017-01-14T10:10:14.340Z,2680
2017-01-14T10:11:18.015Z,2700
2017-01-14T10:12:17.310Z,2672
2017-01-14T10:13:16.160Z,2644
2017-01-14T10:14:14.988Z,2628
2017-01-14T10:15:14.077Z,2668
2017-01-14T10:16:15.092Z,2700
2017-01-14T10:17:15.194Z,2776
2017-01-14T10:18:12.826Z,2848
2017-01-14T10:19:14.179Z,2904
2017-01-14T10:20:12.860Z,2964
2017-01-14T10:21:08.237Z,2900
2017-01-14T10:22:06.608Z,2924
2017-01-14T10:23:06.541Z,2988
2017-01-14T10:24:06.945Z,3108
2017-01-14T10:25:06.684Z,3324
2017-01-14T10:26:06.498Z,3256
2017-01-14T10:27:06.461Z,3156
2017-01-14T10:28:06.954Z,3148
2017-01-14T10:29:06.669Z,3316
2017-01-14T10:30:06.472Z,3540
2017-01-14T10:31:06.500Z,4552
2017-01-14T10:32:06.455Z,4176
2017-01-14T10:33:06.461Z,3776
2017-01-14T10:34:06.515Z,3968
2017-01-14T10:35:06.598Z,4736
2017-01-14T10:36:06.452Z,3820
2017-01-14T10:37:06.514Z,4600
2017-01-14T10:38:06.452Z,3456
2017-01-14T10:39:06.628Z,3352
2017-01-14T10:40:06.473Z,3340
2017-01-14T10:41:07.098Z,3224
2017-01-14T10:42:06.545Z,3180
2017-01-14T10:43:06.473Z,3412
2017-01-14T10:44:06.476Z,3608
2017-01-14T10:45:06.508Z,3776
2017-01-14T10:46:06.564Z,3612
2017-01-14T10:47:06.472Z,3672
2017-01-14T10:48:06.485Z,3640
2017-01-14T10:49:06.597Z,3596
2017-01-14T10:50:06.488Z,3812
2017-01-14T10:51:06.489Z,3620
2017-01-14T10:52:06.591Z,3336
2017-01-14T10:53:06.503Z,3260
2017-01-14T10:54:06.495Z,3204
2017-01-14T10:55:06.574Z,3152
2017-01-14T10:56:06.545Z,3112
2017-01-14T10:57:06.471Z,3088
2017-01-14T10:58:06.494Z,2996
2017-01-14T10:59:06.748Z,2796
2017-01-14T11:00:06.489Z,2788
2017-01-14T11:01:06.474Z,2840
2017-01-14T11:02:06.717Z,2704
2017-01-14T11:03:06.496Z,2748
2017-01-14T11:04:06.494Z,2696
2017-01-14T11:05:07.296Z,2700
2017-01-14T11:06:06.553Z,2840
2017-01-14T11:07:06.596Z,2684
2017-01-14T11:08:06.509Z,2528
2017-01-14T11:09:06.505Z,2568
2017-01-14T11:10:06.599Z,3092
2017-01-14T11:11:06.613Z,4412
2017-01-14T11:12:07.961Z,4564
2017-01-14T11:13:06.509Z,4308
2017-01-14T11:14:06.599Z,3924
2017-01-14T11:15:06.768Z,3592
2017-01-14T11:16:06.550Z,3792
2017-01-14T11:17:06.477Z,4636
2017-01-14T11:18:06.520Z,5592
2017-01-14T11:19:06.498Z,6296
2017-01-14T11:20:06.513Z,5240
2017-01-14T11:21:06.637Z,4636
2017-01-14T11:22:06.571Z,4796
2017-01-14T11:23:06.509Z,4904
2017-01-14T11:24:06.494Z,5120
2017-01-14T11:25:06.753Z,4476
2017-01-14T11:26:06.524Z,4440
2017-01-14T11:27:06.722Z,4076
2017-01-14T11:28:06.683Z,5116
2017-01-14T11:29:06.502Z,4540
2017-01-14T11:30:06.491Z,4536
2017-01-14T11:31:06.837Z,5124
2017-01-14T11:32:06.517Z,4036
2017-01-14T11:33:06.703Z,4912
2017-01-14T11:34:06.622Z,5172
2017-01-14T11:35:06.655Z,4780
2017-01-14T11:36:06.489Z,4764
2017-01-14T11:37:06.508Z,5092
2017-01-14T11:38:06.679Z,5352
2017-01-14T11:39:06.488Z,5672
2017-01-14T11:40:06.646Z,5396
2017-01-14T11:41:06.524Z,4248
2017-01-14T11:42:06.701Z,3648
2017-01-14T11:43:06.527Z,3760
2017-01-14T11:44:06.517Z,3848
2017-01-14T11:45:06.510Z,3848
2017-01-14T11:46:06.655Z,3796
2017-01-14T11:47:06.574Z,3764
2017-01-14T11:48:06.597Z,3212
2017-01-14T11:49:06.502Z,3584
2017-01-14T11:50:06.547Z,4300
2017-01-14T11:51:06.538Z,4640
2017-01-14T11:52:06.500Z,5520
2017-01-14T11:53:06.567Z,5924
2017-01-14T11:54:06.544Z,6836
2017-01-14T11:55:06.535Z,6472
2017-01-14T11:56:06.562Z,5284
2017-01-14T11:57:06.660Z,5292
2017-01-14T11:58:06.675Z,5256
2017-01-14T11:59:06.701Z,5040
2017-01-14T12:00:06.796Z,4832
2017-01-14T12:01:06.686Z,4340
2017-01-14T12:02:06.601Z,4828
2017-01-14T12:03:06.659Z,4144
2017-01-14T12:04:06.579Z,4276
2017-01-14T12:05:06.534Z,3908
2017-01-14T12:06:06.530Z,4000
2017-01-14T12:07:06.605Z,4252
2017-01-14T12:08:06.760Z,4456
2017-01-14T12:09:06.686Z,4068
2017-01-14T12:10:07.029Z,3656
2017-01-14T12:11:06.518Z,3560
2017-01-14T12:12:06.528Z,3336
2017-01-14T12:13:06.532Z,3284
2017-01-14T12:14:06.527Z,3444
2017-01-14T12:15:06.565Z,3420
2017-01-14T12:16:06.565Z,3428
2017-01-14T12:17:06.531Z,3364
2017-01-14T12:18:06.568Z,3352
2017-01-14T12:19:06.603Z,3372
2017-01-14T12:20:06.570Z,3336
2017-01-14T12:21:06.559Z,3548
2017-01-14T12:22:06.613Z,3872
2017-01-14T12:23:06.519Z,4072
2017-01-14T12:24:06.621Z,3928
2017-01-14T12:25:06.538Z,4028
2017-01-14T12:26:06.539Z,3884
2017-01-14T12:27:06.552Z,4520
2017-01-14T12:28:06.586Z,4512
2017-01-14T12:29:06.542Z,4648
2017-01-14T12:30:06.661Z,4948
2017-01-14T12:31:06.630Z,5000
2017-01-14T12:32:06.560Z,5252
2017-01-14T12:33:06.538Z,5216
2017-01-14T12:34:06.570Z,5196
2017-01-14T12:35:06.559Z,4928
2017-01-14T12:36:06.665Z,4928
2017-01-14T12:37:06.544Z,5184
2017-01-14T12:38:06.547Z,5416
2017-01-14T12:39:06.608Z,4088
2017-01-14T12:40:06.566Z,4104
2017-01-14T12:41:06.556Z,4236
2017-01-14T12:42:07.806Z,4256
2017-01-14T12:43:06.606Z,4240
2017-01-14T12:44:06.723Z,4180
2017-01-14T12:45:06.805Z,4756
2017-01-14T12:46:14.800Z,4336
2017-01-14T12:47:16.467Z,3736
2017-01-14T12:48:15.209Z,3732
2017-01-14T12:49:15.507Z,4616
2017-01-14T12:50:15.284Z,5252
2017-01-14T12:51:15.562Z,4352
2017-01-14T12:52:13.715Z,3976
2017-01-14T12:53:14.002Z,3648
2017-01-14T12:54:15.023Z,3524
2017-01-14T12:55:11.764Z,4232
2017-01-14T12:56:12.531Z,4076
2017-01-14T12:57:09.622Z,4028
2017-01-14T12:58:06.590Z,3724
2017-01-14T12:59:06.592Z,3184
2017-01-14T13:00:06.793Z,3120
2017-01-14T13:01:06.986Z,3488
2017-01-14T13:02:06.699Z,3636
2017-01-14T13:03:06.647Z,3260
2017-01-14T13:04:06.599Z,3136
2017-01-14T13:05:06.623Z,3960
2017-01-14T13:06:06.630Z,3008
2017-01-14T13:07:06.705Z,2796
2017-01-14T13:08:06.610Z,2492
2017-01-14T13:09:06.601Z,2484
2017-01-14T13:10:06.697Z,3096
2017-01-14T13:11:06.990Z,3616
2017-01-14T13:12:06.925Z,3716
2017-01-14T13:13:06.573Z,3532
2017-01-14T13:14:06.593Z,3728
2017-01-14T13:15:06.897Z,3584
2017-01-14T13:16:06.668Z,3844
2017-01-14T13:17:06.912Z,4188
2017-01-14T13:18:09.725Z,3620
2017-01-14T13:19:06.693Z,3076
2017-01-14T13:20:06.630Z,3356
2017-01-14T13:21:06.590Z,3240
2017-01-14T13:22:06.636Z,3860
2017-01-14T13:23:06.718Z,4096
2017-01-14T13:24:06.570Z,4544
2017-01-14T13:25:06.609Z,4432
2017-01-14T13:26:06.653Z,4392
2017-01-14T13:27:06.795Z,4016
2017-01-14T13:28:06.584Z,3224
2017-01-14T13:29:06.867Z,2484
2017-01-14T13:30:06.646Z,2644
2017-01-14T13:31:07.024Z,3276
2017-01-14T13:32:06.696Z,3708
2017-01-14T13:33:07.013Z,4308
2017-01-14T13:34:06.749Z,4068
2017-01-14T13:35:06.759Z,5356
2017-01-14T13:36:06.893Z,5676
2017-01-14T13:37:06.782Z,5536
2017-01-14T13:38:06.827Z,6496
2017-01-14T13:39:06.760Z,6216
2017-01-14T13:40:06.675Z,7156
2017-01-14T13:41:07.018Z,6924
2017-01-14T13:42:06.871Z,5920
2017-01-14T13:43:06.786Z,5204
2017-01-14T13:44:06.739Z,3880
2017-01-14T13:45:07.023Z,2680
2017-01-14T13:46:06.663Z,2732
2017-01-14T13:47:06.816Z,3056
2017-01-14T13:48:06.908Z,3260
2017-01-14T13:49:06.656Z,3392
2017-01-14T13:50:06.627Z,3284
2017-01-14T13:51:07.031Z,3132
2017-01-14T13:52:06.981Z,3516
2017-01-14T13:53:06.779Z,3044
2017-01-14T13:54:06.912Z,3544
2017-01-14T13:55:06.808Z,3500
2017-01-14T13:56:06.965Z,2920
2017-01-14T13:57:06.909Z,2188
2017-01-14T13:58:06.678Z,1980
2017-01-14T13:59:06.915Z,1656
2017-01-14T14:00:06.907Z,1508
2017-01-14T14:01:07.196Z,1280
2017-01-14T14:02:06.812Z,1360
2017-01-14T14:03:06.772Z,1204